VOI780 MMMX-KMCO
Flight info
| Callsign | VOI780 |
|---|---|
| Flight time | 2h 38m |
| Altitude | 33000 |
| Route | NOXOS3A NOXOS UT155 AVALI UM580 TABSA/N0448F350 UM580 IRDOV M580 MINOW DCT DOZES PRICY5 |
| Aircraft | A21N/M-SDE2E3FGHIRWXY/LB1 |
Departure
| Time | 2026-05-05 19:23 |
|---|---|
| Airport | Mexico City Benito Juárez International Airport (MMMX) |
Arrival
| Time | 2026-05-05 22:01 |
|---|---|
| Airport | Orlando International Airport (KMCO) |
| Time | Latitude | Longitude | Altitude | Speed | Heading |
|---|---|---|---|---|---|
| 2026-05-05 19:08 | 19.43363 | -99.08382 | 7345 ft | 0 kts | 329° |
| 2026-05-05 19:13 | 19.43351 | -99.08374 | 7308 ft | 0 kts | 328° |
| 2026-05-05 19:13 | 19.43328 | -99.08359 | 7308 ft | 0 kts | 328° |
| 2026-05-05 19:13 | 19.43308 | -99.08345 | 7308 ft | 0 kts | 313° |
| 2026-05-05 19:14 | 19.43300 | -99.08324 | 7308 ft | 0 kts | 255° |
| 2026-05-05 19:14 | 19.43309 | -99.08304 | 7308 ft | 0 kts | 239° |
| 2026-05-05 19:14 | 19.43311 | -99.08300 | 7308 ft | 0 kts | 239° |
| 2026-05-05 19:19 | 19.43310 | -99.08303 | 7308 ft | 2 kts | 239° |
| 2026-05-05 19:19 | 19.43298 | -99.08324 | 7308 ft | 5 kts | 239° |
| 2026-05-05 19:19 | 19.43273 | -99.08367 | 7308 ft | 8 kts | 239° |
| 2026-05-05 19:20 | 19.43240 | -99.08427 | 7308 ft | 11 kts | 239° |
| 2026-05-05 19:20 | 19.43199 | -99.08500 | 7308 ft | 12 kts | 240° |
| 2026-05-05 19:20 | 19.43151 | -99.08586 | 7308 ft | 15 kts | 239° |
| 2026-05-05 19:20 | 19.43098 | -99.08682 | 7308 ft | 16 kts | 239° |
| 2026-05-05 19:21 | 19.43060 | -99.08750 | 7308 ft | 17 kts | 239° |
| 2026-05-05 19:21 | 19.42977 | -99.08896 | 7308 ft | 18 kts | 239° |
| 2026-05-05 19:21 | 19.42932 | -99.08974 | 7308 ft | 19 kts | 239° |
| 2026-05-05 19:21 | 19.42823 | -99.09067 | 7308 ft | 10 kts | 206° |
| 2026-05-05 19:22 | 19.42766 | -99.09071 | 7308 ft | 6 kts | 128° |
| 2026-05-05 19:22 | 19.42765 | -99.09040 | 7308 ft | 7 kts | 71° |
| 2026-05-05 19:22 | 19.42803 | -99.08970 | 7308 ft | 27 kts | 59° |
| 2026-05-05 19:22 | 19.43043 | -99.08550 | 7307 ft | 112 kts | 59° |
| 2026-05-05 19:23 | 19.43605 | -99.07548 | 7310 ft | 190 kts | 59° |
| 2026-05-05 19:23 | 19.44339 | -99.06252 | 8062 ft | 206 kts | 58° |
| 2026-05-05 19:23 | 19.45066 | -99.04970 | 9452 ft | 199 kts | 59° |
| 2026-05-05 19:23 | 19.45784 | -99.03674 | 9571 ft | 210 kts | 60° |
| 2026-05-05 19:24 | 19.46543 | -99.02328 | 9670 ft | 221 kts | 59° |
| 2026-05-05 19:24 | 19.47361 | -99.00869 | 9778 ft | 234 kts | 60° |
| 2026-05-05 19:24 | 19.48201 | -98.99360 | 9994 ft | 248 kts | 60° |
| 2026-05-05 19:24 | 19.49107 | -98.97732 | 10148 ft | 265 kts | 60° |
| 2026-05-05 19:25 | 19.50073 | -98.95996 | 10343 ft | 280 kts | 60° |
| 2026-05-05 19:25 | 19.51095 | -98.94176 | 10587 ft | 293 kts | 60° |
| 2026-05-05 19:25 | 19.52152 | -98.92296 | 11003 ft | 299 kts | 60° |
| 2026-05-05 19:25 | 19.53167 | -98.90368 | 11511 ft | 300 kts | 67° |
| 2026-05-05 19:26 | 19.53836 | -98.88266 | 12035 ft | 302 kts | 75° |
| 2026-05-05 19:26 | 19.54399 | -98.86111 | 12584 ft | 304 kts | 75° |
| 2026-05-05 19:26 | 19.54959 | -98.83944 | 13145 ft | 306 kts | 75° |
| 2026-05-05 19:26 | 19.55525 | -98.81764 | 13701 ft | 308 kts | 75° |
| 2026-05-05 19:27 | 19.56097 | -98.79571 | 14199 ft | 310 kts | 75° |
| 2026-05-05 19:27 | 19.56674 | -98.77360 | 14711 ft | 312 kts | 75° |
| 2026-05-05 19:27 | 19.57256 | -98.75139 | 15220 ft | 314 kts | 75° |
| 2026-05-05 19:27 | 19.57815 | -98.72893 | 15722 ft | 315 kts | 78° |
| 2026-05-05 19:28 | 19.58240 | -98.70576 | 16016 ft | 327 kts | 81° |
| 2026-05-05 19:28 | 19.58648 | -98.68154 | 16234 ft | 340 kts | 81° |
| 2026-05-05 19:28 | 19.59081 | -98.65633 | 16406 ft | 355 kts | 80° |
| 2026-05-05 19:28 | 19.59536 | -98.63008 | 16611 ft | 369 kts | 80° |
| 2026-05-05 19:29 | 19.60006 | -98.60307 | 16969 ft | 376 kts | 80° |
| 2026-05-05 19:29 | 19.60482 | -98.57568 | 17443 ft | 380 kts | 80° |
| 2026-05-05 19:29 | 19.60966 | -98.54801 | 17972 ft | 382 kts | 80° |
| 2026-05-05 19:29 | 19.61428 | -98.52022 | 18443 ft | 384 kts | 83° |
| 2026-05-05 19:30 | 19.61542 | -98.49222 | 18893 ft | 386 kts | 91° |
| 2026-05-05 19:30 | 19.61472 | -98.46371 | 19355 ft | 388 kts | 92° |
| 2026-05-05 19:30 | 19.61386 | -98.43499 | 19771 ft | 391 kts | 92° |
| 2026-05-05 19:30 | 19.61309 | -98.40613 | 20203 ft | 394 kts | 92° |
| 2026-05-05 19:31 | 19.61240 | -98.37702 | 20637 ft | 396 kts | 91° |
| 2026-05-05 19:31 | 19.61168 | -98.34771 | 21044 ft | 399 kts | 92° |
| 2026-05-05 19:31 | 19.61090 | -98.31828 | 21512 ft | 400 kts | 92° |
| 2026-05-05 19:31 | 19.61014 | -98.28873 | 21970 ft | 401 kts | 92° |
| 2026-05-05 19:32 | 19.60931 | -98.25899 | 22348 ft | 405 kts | 92° |
| 2026-05-05 19:32 | 19.60845 | -98.22902 | 22725 ft | 408 kts | 91° |
| 2026-05-05 19:32 | 19.60765 | -98.19878 | 23082 ft | 412 kts | 91° |
| 2026-05-05 19:32 | 19.60685 | -98.16829 | 23443 ft | 415 kts | 91° |
| 2026-05-05 19:33 | 19.60598 | -98.13756 | 23759 ft | 418 kts | 92° |
| 2026-05-05 19:33 | 19.60503 | -98.10664 | 24086 ft | 420 kts | 92° |
| 2026-05-05 19:33 | 19.60405 | -98.07560 | 24402 ft | 422 kts | 92° |
| 2026-05-05 19:33 | 19.60327 | -98.04439 | 24732 ft | 424 kts | 90° |
| 2026-05-05 19:34 | 19.60565 | -98.01312 | 25031 ft | 427 kts | 80° |
| 2026-05-05 19:34 | 19.61390 | -97.98278 | 25324 ft | 430 kts | 68° |
| 2026-05-05 19:34 | 19.62670 | -97.95403 | 25631 ft | 433 kts | 64° |
| 2026-05-05 19:35 | 19.65461 | -97.89697 | 26223 ft | 438 kts | 63° |
| 2026-05-05 19:35 | 19.66850 | -97.86808 | 26495 ft | 441 kts | 64° |
| 2026-05-05 19:35 | 19.68225 | -97.83893 | 26780 ft | 443 kts | 64° |
| 2026-05-05 19:35 | 19.69607 | -97.80955 | 27068 ft | 446 kts | 64° |
| 2026-05-05 19:36 | 19.70999 | -97.78000 | 27349 ft | 449 kts | 64° |
| 2026-05-05 19:36 | 19.72395 | -97.75033 | 27638 ft | 451 kts | 64° |
| 2026-05-05 19:36 | 19.73792 | -97.72042 | 27896 ft | 453 kts | 64° |
| 2026-05-05 19:36 | 19.75201 | -97.69038 | 28172 ft | 456 kts | 64° |
| 2026-05-05 19:37 | 19.76619 | -97.66016 | 28435 ft | 458 kts | 64° |
| 2026-05-05 19:37 | 19.78047 | -97.62981 | 28678 ft | 461 kts | 64° |
| 2026-05-05 19:37 | 19.79480 | -97.59932 | 28945 ft | 463 kts | 64° |
| 2026-05-05 19:37 | 19.80916 | -97.56864 | 29217 ft | 465 kts | 64° |
| 2026-05-05 19:38 | 19.82358 | -97.53787 | 29518 ft | 466 kts | 64° |
| 2026-05-05 19:38 | 19.83786 | -97.50742 | 29832 ft | 467 kts | 64° |
| 2026-05-05 19:38 | 19.85232 | -97.47661 | 30135 ft | 466 kts | 64° |
| 2026-05-05 19:38 | 19.86673 | -97.44574 | 30428 ft | 466 kts | 64° |
| 2026-05-05 19:39 | 19.88114 | -97.41491 | 30696 ft | 466 kts | 64° |
| 2026-05-05 19:39 | 19.89553 | -97.38413 | 30987 ft | 465 kts | 65° |
| 2026-05-05 19:39 | 19.90989 | -97.35336 | 31266 ft | 464 kts | 65° |
| 2026-05-05 19:39 | 19.92418 | -97.32269 | 31508 ft | 464 kts | 65° |
| 2026-05-05 19:40 | 19.93851 | -97.29197 | 31792 ft | 463 kts | 65° |
| 2026-05-05 19:40 | 19.95281 | -97.26132 | 32054 ft | 463 kts | 65° |
| 2026-05-05 19:40 | 19.96706 | -97.23073 | 32309 ft | 462 kts | 65° |
| 2026-05-05 19:40 | 19.98132 | -97.20011 | 32556 ft | 462 kts | 65° |
| 2026-05-05 19:41 | 19.99557 | -97.16952 | 32811 ft | 462 kts | 65° |
| 2026-05-05 19:41 | 20.02402 | -97.10821 | 32891 ft | 462 kts | 65° |
| 2026-05-05 19:42 | 20.05245 | -97.04689 | 32856 ft | 462 kts | 65° |
| 2026-05-05 19:42 | 20.08084 | -96.98561 | 32827 ft | 462 kts | 65° |
| 2026-05-05 19:43 | 20.10924 | -96.92427 | 32824 ft | 462 kts | 65° |
| 2026-05-05 19:43 | 20.13759 | -96.86292 | 32830 ft | 462 kts | 65° |
| 2026-05-05 19:44 | 20.16579 | -96.80188 | 32824 ft | 460 kts | 65° |
| 2026-05-05 19:44 | 20.19456 | -96.74105 | 32822 ft | 461 kts | 61° |
| 2026-05-05 19:45 | 20.22765 | -96.68265 | 32815 ft | 461 kts | 59° |
| 2026-05-05 19:45 | 20.26104 | -96.62434 | 32818 ft | 461 kts | 60° |
| 2026-05-05 19:46 | 20.29409 | -96.56634 | 32824 ft | 461 kts | 60° |
| 2026-05-05 19:46 | 20.32730 | -96.50799 | 32829 ft | 461 kts | 60° |
| 2026-05-05 19:47 | 20.36052 | -96.44952 | 32836 ft | 462 kts | 60° |
| 2026-05-05 19:47 | 20.39390 | -96.39070 | 32824 ft | 464 kts | 60° |
| 2026-05-05 19:48 | 20.42733 | -96.33186 | 32828 ft | 464 kts | 59° |
| 2026-05-05 19:48 | 20.46074 | -96.27295 | 32827 ft | 463 kts | 60° |
| 2026-05-05 19:49 | 20.49409 | -96.21409 | 32831 ft | 464 kts | 60° |
| 2026-05-05 19:49 | 20.52746 | -96.15521 | 32829 ft | 464 kts | 60° |
| 2026-05-05 19:50 | 20.56072 | -96.09627 | 32833 ft | 464 kts | 60° |
| 2026-05-05 19:50 | 20.59399 | -96.03735 | 32840 ft | 463 kts | 59° |
| 2026-05-05 19:51 | 20.62727 | -95.97843 | 32840 ft | 463 kts | 60° |
| 2026-05-05 19:51 | 20.66042 | -95.91946 | 32847 ft | 463 kts | 60° |
| 2026-05-05 19:52 | 20.69356 | -95.86052 | 32843 ft | 463 kts | 59° |
| 2026-05-05 19:52 | 20.72676 | -95.80146 | 32850 ft | 464 kts | 59° |
| 2026-05-05 19:53 | 20.76001 | -95.74224 | 32851 ft | 465 kts | 59° |
| 2026-05-05 19:53 | 20.79327 | -95.68286 | 32841 ft | 466 kts | 59° |
| 2026-05-05 19:54 | 20.82654 | -95.62352 | 32845 ft | 465 kts | 59° |
| 2026-05-05 19:54 | 20.85959 | -95.56455 | 32852 ft | 465 kts | 59° |
| 2026-05-05 19:55 | 20.89280 | -95.50515 | 32851 ft | 466 kts | 59° |
| 2026-05-05 19:55 | 20.92599 | -95.44564 | 32846 ft | 466 kts | 59° |
| 2026-05-05 19:56 | 20.95909 | -95.38621 | 32845 ft | 465 kts | 59° |
| 2026-05-05 19:56 | 20.99218 | -95.32666 | 32856 ft | 465 kts | 59° |
| 2026-05-05 19:57 | 21.02526 | -95.26713 | 32853 ft | 465 kts | 59° |
| 2026-05-05 19:57 | 21.05826 | -95.20775 | 32848 ft | 464 kts | 59° |
| 2026-05-05 19:58 | 21.09133 | -95.14826 | 32859 ft | 466 kts | 59° |
| 2026-05-05 19:58 | 21.12445 | -95.08857 | 32854 ft | 466 kts | 59° |
| 2026-05-05 19:59 | 21.15728 | -95.02932 | 32856 ft | 466 kts | 59° |
| 2026-05-05 19:59 | 21.18958 | -94.96900 | 32861 ft | 466 kts | 60° |
| 2026-05-05 20:00 | 21.22096 | -94.90829 | 32856 ft | 464 kts | 60° |
| 2026-05-05 20:00 | 21.25221 | -94.84768 | 32856 ft | 464 kts | 60° |
| 2026-05-05 20:01 | 21.28347 | -94.78708 | 32857 ft | 464 kts | 60° |
| 2026-05-05 20:01 | 21.31470 | -94.72646 | 32858 ft | 464 kts | 60° |
| 2026-05-05 20:02 | 21.34588 | -94.66580 | 32859 ft | 464 kts | 60° |
| 2026-05-05 20:02 | 21.37703 | -94.60516 | 32864 ft | 464 kts | 60° |
| 2026-05-05 20:03 | 21.40820 | -94.54446 | 32871 ft | 463 kts | 60° |
| 2026-05-05 20:03 | 21.43898 | -94.48437 | 32866 ft | 463 kts | 60° |
| 2026-05-05 20:04 | 21.47002 | -94.42387 | 32871 ft | 463 kts | 60° |
| 2026-05-05 20:04 | 21.50103 | -94.36331 | 32870 ft | 463 kts | 60° |
| 2026-05-05 20:05 | 21.53200 | -94.30268 | 32868 ft | 463 kts | 60° |
| 2026-05-05 20:05 | 21.56295 | -94.24202 | 32870 ft | 463 kts | 60° |
| 2026-05-05 20:06 | 21.59386 | -94.18135 | 32876 ft | 462 kts | 60° |
| 2026-05-05 20:06 | 21.62460 | -94.12097 | 32876 ft | 460 kts | 60° |
| 2026-05-05 20:07 | 21.65529 | -94.06068 | 32876 ft | 460 kts | 60° |
| 2026-05-05 20:07 | 21.68600 | -94.00028 | 32874 ft | 460 kts | 60° |
| 2026-05-05 20:08 | 21.71665 | -93.93987 | 32877 ft | 460 kts | 60° |
| 2026-05-05 20:08 | 21.74211 | -93.88968 | 32876 ft | 460 kts | 60° |
| 2026-05-05 20:09 | 21.77273 | -93.82924 | 32881 ft | 461 kts | 60° |
| 2026-05-05 20:09 | 21.80334 | -93.76872 | 32881 ft | 459 kts | 60° |
| 2026-05-05 20:10 | 21.83382 | -93.70844 | 32873 ft | 458 kts | 60° |
| 2026-05-05 20:10 | 21.86478 | -93.64846 | 32879 ft | 458 kts | 59° |
| 2026-05-05 20:11 | 21.89577 | -93.58851 | 32876 ft | 458 kts | 60° |
| 2026-05-05 20:11 | 21.92671 | -93.52840 | 32877 ft | 458 kts | 60° |
| 2026-05-05 20:12 | 21.95755 | -93.46835 | 32883 ft | 458 kts | 60° |
| 2026-05-05 20:12 | 21.98843 | -93.40816 | 32881 ft | 458 kts | 60° |
| 2026-05-05 20:13 | 22.01925 | -93.34808 | 32883 ft | 458 kts | 60° |
| 2026-05-05 20:13 | 22.05005 | -93.28790 | 32881 ft | 458 kts | 60° |
| 2026-05-05 20:14 | 22.08065 | -93.22808 | 32885 ft | 458 kts | 60° |
| 2026-05-05 20:14 | 22.11144 | -93.16783 | 32887 ft | 459 kts | 60° |
| 2026-05-05 20:15 | 22.14228 | -93.10740 | 32885 ft | 460 kts | 60° |
| 2026-05-05 20:15 | 22.17314 | -93.04684 | 32890 ft | 460 kts | 60° |
| 2026-05-05 20:16 | 22.20383 | -92.98655 | 32888 ft | 457 kts | 60° |
| 2026-05-05 20:16 | 22.23435 | -92.92646 | 32886 ft | 457 kts | 60° |
| 2026-05-05 20:17 | 22.26494 | -92.86628 | 32888 ft | 457 kts | 60° |
| 2026-05-05 20:17 | 22.29551 | -92.80608 | 32888 ft | 457 kts | 60° |
| 2026-05-05 20:18 | 22.32604 | -92.74574 | 32893 ft | 458 kts | 60° |
| 2026-05-05 20:18 | 22.35662 | -92.68535 | 33005 ft | 459 kts | 60° |
| 2026-05-05 20:18 | 22.37190 | -92.65515 | 33272 ft | 458 kts | 60° |
| 2026-05-05 20:19 | 22.38718 | -92.62493 | 33530 ft | 458 kts | 60° |
| 2026-05-05 20:19 | 22.40243 | -92.59472 | 33758 ft | 458 kts | 60° |
| 2026-05-05 20:19 | 22.41766 | -92.56457 | 33966 ft | 458 kts | 60° |
| 2026-05-05 20:19 | 22.43290 | -92.53433 | 34135 ft | 458 kts | 60° |
| 2026-05-05 20:20 | 22.44816 | -92.50406 | 34306 ft | 459 kts | 60° |
| 2026-05-05 20:20 | 22.46317 | -92.47369 | 34461 ft | 459 kts | 61° |
| 2026-05-05 20:20 | 22.47807 | -92.44308 | 34593 ft | 460 kts | 61° |
| 2026-05-05 20:20 | 22.49298 | -92.41240 | 34753 ft | 461 kts | 61° |
| 2026-05-05 20:21 | 22.50792 | -92.38167 | 34883 ft | 462 kts | 61° |
| 2026-05-05 20:21 | 22.53800 | -92.32004 | 34929 ft | 463 kts | 61° |
| 2026-05-05 20:22 | 22.56805 | -92.25839 | 34908 ft | 464 kts | 61° |
| 2026-05-05 20:22 | 22.59812 | -92.19662 | 34903 ft | 464 kts | 61° |
| 2026-05-05 20:23 | 22.62820 | -92.13488 | 34905 ft | 464 kts | 61° |
| 2026-05-05 20:23 | 22.65824 | -92.07301 | 34906 ft | 463 kts | 61° |
| 2026-05-05 20:24 | 22.68818 | -92.01127 | 34905 ft | 463 kts | 61° |
| 2026-05-05 20:24 | 22.71860 | -91.94974 | 34908 ft | 463 kts | 60° |
| 2026-05-05 20:25 | 22.74886 | -91.88853 | 34909 ft | 463 kts | 60° |
| 2026-05-05 20:25 | 22.77916 | -91.82697 | 34918 ft | 464 kts | 60° |
| 2026-05-05 20:26 | 22.80948 | -91.76521 | 34911 ft | 464 kts | 60° |
| 2026-05-05 20:26 | 22.83992 | -91.70355 | 34912 ft | 464 kts | 60° |
| 2026-05-05 20:27 | 22.87034 | -91.64181 | 34919 ft | 464 kts | 60° |
| 2026-05-05 20:27 | 22.90071 | -91.58007 | 34918 ft | 464 kts | 60° |
| 2026-05-05 20:28 | 22.93110 | -91.51825 | 34918 ft | 464 kts | 60° |
| 2026-05-05 20:28 | 22.96141 | -91.45653 | 34917 ft | 463 kts | 60° |
| 2026-05-05 20:29 | 22.99161 | -91.39471 | 34915 ft | 463 kts | 60° |
| 2026-05-05 20:29 | 23.02179 | -91.33293 | 34921 ft | 463 kts | 60° |
| 2026-05-05 20:30 | 23.05193 | -91.27106 | 34924 ft | 463 kts | 60° |
| 2026-05-05 20:30 | 23.08206 | -91.20916 | 34927 ft | 463 kts | 60° |
| 2026-05-05 20:31 | 23.11224 | -91.14727 | 34929 ft | 463 kts | 60° |
| 2026-05-05 20:31 | 23.14226 | -91.08538 | 34923 ft | 463 kts | 59° |
| 2026-05-05 20:32 | 23.17216 | -91.02339 | 34925 ft | 463 kts | 59° |
| 2026-05-05 20:32 | 23.20222 | -90.96151 | 34927 ft | 463 kts | 59° |
| 2026-05-05 20:33 | 23.23208 | -90.90002 | 34928 ft | 463 kts | 59° |
| 2026-05-05 20:33 | 23.26183 | -90.83851 | 34931 ft | 463 kts | 59° |
| 2026-05-05 20:34 | 23.29181 | -90.77650 | 34929 ft | 463 kts | 59° |
| 2026-05-05 20:34 | 23.32175 | -90.71443 | 34935 ft | 464 kts | 59° |
| 2026-05-05 20:35 | 23.35175 | -90.65221 | 34934 ft | 464 kts | 59° |
| 2026-05-05 20:35 | 23.38170 | -90.59004 | 34936 ft | 464 kts | 59° |
| 2026-05-05 20:36 | 23.41163 | -90.52768 | 34938 ft | 464 kts | 59° |
| 2026-05-05 20:36 | 23.44153 | -90.46539 | 34941 ft | 465 kts | 59° |
| 2026-05-05 20:37 | 23.47152 | -90.40286 | 34934 ft | 466 kts | 59° |
| 2026-05-05 20:37 | 23.50147 | -90.34027 | 34941 ft | 466 kts | 59° |
| 2026-05-05 20:38 | 23.53139 | -90.27767 | 34940 ft | 466 kts | 59° |
| 2026-05-05 20:38 | 23.56130 | -90.21500 | 34940 ft | 466 kts | 59° |
| 2026-05-05 20:39 | 23.59103 | -90.15270 | 34942 ft | 466 kts | 59° |
| 2026-05-05 20:39 | 23.62087 | -90.09004 | 34944 ft | 466 kts | 59° |
| 2026-05-05 20:40 | 23.65069 | -90.02729 | 34945 ft | 466 kts | 59° |
| 2026-05-05 20:40 | 23.68050 | -89.96455 | 34950 ft | 466 kts | 59° |
| 2026-05-05 20:41 | 23.71030 | -89.90170 | 34949 ft | 467 kts | 59° |
| 2026-05-05 20:41 | 23.74010 | -89.83870 | 34949 ft | 467 kts | 59° |
| 2026-05-05 20:42 | 23.76994 | -89.77572 | 34950 ft | 467 kts | 59° |
| 2026-05-05 20:42 | 23.79983 | -89.71263 | 34949 ft | 468 kts | 59° |
| 2026-05-05 20:43 | 23.82967 | -89.64947 | 34954 ft | 468 kts | 59° |
| 2026-05-05 20:43 | 23.85928 | -89.58607 | 34951 ft | 468 kts | 60° |
| 2026-05-05 20:44 | 23.88894 | -89.52267 | 34951 ft | 468 kts | 59° |
| 2026-05-05 20:44 | 23.91843 | -89.45983 | 34951 ft | 468 kts | 60° |
| 2026-05-05 20:45 | 23.96300 | -89.36486 | 34956 ft | 468 kts | 60° |
| 2026-05-05 20:45 | 23.99262 | -89.30145 | 34955 ft | 468 kts | 60° |
| 2026-05-05 20:46 | 24.02233 | -89.23810 | 34955 ft | 468 kts | 60° |
| 2026-05-05 20:46 | 24.05209 | -89.17476 | 34962 ft | 469 kts | 59° |
| 2026-05-05 20:47 | 24.08195 | -89.11136 | 34964 ft | 468 kts | 59° |
| 2026-05-05 20:47 | 24.11151 | -89.04798 | 34954 ft | 467 kts | 59° |
| 2026-05-05 20:48 | 24.14103 | -88.98454 | 34958 ft | 468 kts | 59° |
| 2026-05-05 20:48 | 24.17054 | -88.92106 | 34964 ft | 468 kts | 59° |
| 2026-05-05 20:49 | 24.19969 | -88.85784 | 34954 ft | 467 kts | 59° |
| 2026-05-05 20:49 | 24.22946 | -88.79397 | 34963 ft | 468 kts | 59° |
| 2026-05-05 20:50 | 24.25388 | -88.74105 | 34964 ft | 468 kts | 59° |
| 2026-05-05 20:50 | 24.28800 | -88.66715 | 34960 ft | 467 kts | 59° |
| 2026-05-05 20:51 | 24.31724 | -88.60350 | 34967 ft | 467 kts | 59° |
| 2026-05-05 20:51 | 24.34646 | -88.53988 | 34965 ft | 467 kts | 59° |
| 2026-05-05 20:52 | 24.37579 | -88.47628 | 34975 ft | 467 kts | 59° |
| 2026-05-05 20:52 | 24.40524 | -88.41260 | 34975 ft | 469 kts | 59° |
| 2026-05-05 20:53 | 24.43464 | -88.34866 | 34971 ft | 469 kts | 59° |
| 2026-05-05 20:53 | 24.46392 | -88.28460 | 34972 ft | 470 kts | 59° |
| 2026-05-05 20:54 | 24.49330 | -88.22053 | 34972 ft | 469 kts | 57° |
| 2026-05-05 20:54 | 24.53045 | -88.16254 | 34978 ft | 463 kts | 47° |
| 2026-05-05 20:55 | 24.57011 | -88.10676 | 34979 ft | 463 kts | 47° |
| 2026-05-05 20:55 | 24.60316 | -88.06044 | 34980 ft | 464 kts | 47° |
| 2026-05-05 20:56 | 24.64306 | -88.00466 | 34979 ft | 464 kts | 47° |
| 2026-05-05 20:56 | 24.68258 | -87.94847 | 34980 ft | 464 kts | 47° |
| 2026-05-05 20:57 | 24.72232 | -87.89243 | 34977 ft | 464 kts | 47° |
| 2026-05-05 20:57 | 24.76198 | -87.83642 | 34979 ft | 464 kts | 47° |
| 2026-05-05 20:58 | 24.80136 | -87.77995 | 34981 ft | 465 kts | 48° |
| 2026-05-05 20:58 | 24.84069 | -87.72340 | 34979 ft | 464 kts | 47° |
| 2026-05-05 20:59 | 24.88021 | -87.66771 | 34981 ft | 464 kts | 47° |
| 2026-05-05 20:59 | 24.91956 | -87.61150 | 34980 ft | 463 kts | 47° |
| 2026-05-05 21:00 | 24.95910 | -87.55571 | 34989 ft | 462 kts | 47° |
| 2026-05-05 21:00 | 24.99835 | -87.49956 | 34997 ft | 463 kts | 47° |
| 2026-05-05 21:01 | 25.03782 | -87.44331 | 34988 ft | 464 kts | 46° |
| 2026-05-05 21:01 | 25.07774 | -87.38732 | 34990 ft | 464 kts | 47° |
| 2026-05-05 21:02 | 25.11741 | -87.33097 | 34987 ft | 466 kts | 47° |
| 2026-05-05 21:02 | 25.15681 | -87.27424 | 34988 ft | 466 kts | 47° |
| 2026-05-05 21:03 | 25.19646 | -87.21753 | 34992 ft | 466 kts | 47° |
| 2026-05-05 21:03 | 25.23635 | -87.16046 | 34993 ft | 466 kts | 47° |
| 2026-05-05 21:04 | 25.27582 | -87.10367 | 34995 ft | 466 kts | 47° |
| 2026-05-05 21:04 | 25.31500 | -87.04715 | 35003 ft | 465 kts | 46° |
| 2026-05-05 21:05 | 25.35446 | -86.99035 | 34995 ft | 465 kts | 47° |
| 2026-05-05 21:05 | 25.39395 | -86.93367 | 35006 ft | 465 kts | 46° |
| 2026-05-05 21:06 | 25.43327 | -86.87685 | 35000 ft | 465 kts | 47° |
| 2026-05-05 21:06 | 25.47258 | -86.81999 | 34999 ft | 465 kts | 46° |
| 2026-05-05 21:07 | 25.51185 | -86.76323 | 35004 ft | 465 kts | 46° |
| 2026-05-05 21:07 | 25.55106 | -86.70633 | 34999 ft | 465 kts | 47° |
| 2026-05-05 21:08 | 25.59036 | -86.64934 | 34999 ft | 465 kts | 46° |
| 2026-05-05 21:08 | 25.62960 | -86.59236 | 35021 ft | 465 kts | 46° |
| 2026-05-05 21:09 | 25.66878 | -86.53552 | 35002 ft | 463 kts | 46° |
| 2026-05-05 21:09 | 25.70780 | -86.47873 | 35006 ft | 463 kts | 46° |
| 2026-05-05 21:10 | 25.74676 | -86.42183 | 35016 ft | 463 kts | 46° |
| 2026-05-05 21:10 | 25.78579 | -86.36497 | 35010 ft | 463 kts | 46° |
| 2026-05-05 21:11 | 25.82476 | -86.30815 | 35017 ft | 463 kts | 46° |
| 2026-05-05 21:11 | 25.86373 | -86.25126 | 35013 ft | 463 kts | 46° |
| 2026-05-05 21:12 | 25.90258 | -86.19428 | 35034 ft | 463 kts | 46° |
| 2026-05-05 21:12 | 25.94150 | -86.13718 | 35014 ft | 464 kts | 46° |
| 2026-05-05 21:13 | 25.98044 | -86.08002 | 35014 ft | 463 kts | 46° |
| 2026-05-05 21:13 | 26.01903 | -86.02322 | 35014 ft | 463 kts | 46° |
| 2026-05-05 21:14 | 26.05655 | -85.96482 | 35016 ft | 468 kts | 51° |
| 2026-05-05 21:14 | 26.09071 | -85.90314 | 35016 ft | 468 kts | 52° |
| 2026-05-05 21:15 | 26.12479 | -85.84130 | 35022 ft | 468 kts | 52° |
| 2026-05-05 21:15 | 26.15889 | -85.77948 | 35027 ft | 468 kts | 52° |
| 2026-05-05 21:16 | 26.19280 | -85.71751 | 35021 ft | 468 kts | 52° |
| 2026-05-05 21:16 | 26.22691 | -85.65565 | 35026 ft | 469 kts | 52° |
| 2026-05-05 21:17 | 26.26102 | -85.59364 | 35021 ft | 469 kts | 52° |
| 2026-05-05 21:17 | 26.29512 | -85.53151 | 35021 ft | 469 kts | 52° |
| 2026-05-05 21:18 | 26.32906 | -85.46929 | 35020 ft | 470 kts | 52° |
| 2026-05-05 21:18 | 26.36307 | -85.40724 | 35025 ft | 469 kts | 52° |
| 2026-05-05 21:19 | 26.39685 | -85.34513 | 35021 ft | 468 kts | 52° |
| 2026-05-05 21:19 | 26.43072 | -85.28318 | 35024 ft | 468 kts | 52° |
| 2026-05-05 21:20 | 26.46422 | -85.22156 | 35026 ft | 468 kts | 52° |
| 2026-05-05 21:20 | 26.49788 | -85.15947 | 35036 ft | 468 kts | 51° |
| 2026-05-05 21:21 | 26.53170 | -85.09735 | 35030 ft | 468 kts | 52° |
| 2026-05-05 21:21 | 26.56546 | -85.03508 | 35038 ft | 468 kts | 51° |
| 2026-05-05 21:22 | 26.59916 | -84.97275 | 35027 ft | 468 kts | 51° |
| 2026-05-05 21:22 | 26.63288 | -84.91051 | 35030 ft | 468 kts | 51° |
| 2026-05-05 21:23 | 26.66652 | -84.84835 | 35028 ft | 467 kts | 51° |
| 2026-05-05 21:23 | 26.70011 | -84.78608 | 35029 ft | 467 kts | 52° |
| 2026-05-05 21:24 | 26.73361 | -84.72386 | 35032 ft | 467 kts | 52° |
| 2026-05-05 21:24 | 26.76712 | -84.66151 | 35039 ft | 467 kts | 52° |
| 2026-05-05 21:25 | 26.80036 | -84.59944 | 35037 ft | 468 kts | 51° |
| 2026-05-05 21:25 | 26.83397 | -84.53695 | 35030 ft | 468 kts | 51° |
| 2026-05-05 21:26 | 26.86747 | -84.47438 | 35029 ft | 469 kts | 51° |
| 2026-05-05 21:26 | 26.90083 | -84.41179 | 35030 ft | 467 kts | 51° |
| 2026-05-05 21:27 | 26.93430 | -84.34934 | 35032 ft | 466 kts | 51° |
| 2026-05-05 21:27 | 26.96756 | -84.28705 | 35039 ft | 466 kts | 51° |
| 2026-05-05 21:28 | 27.00069 | -84.22461 | 35036 ft | 465 kts | 51° |
| 2026-05-05 21:28 | 27.03379 | -84.16230 | 35035 ft | 465 kts | 51° |
| 2026-05-05 21:29 | 27.06668 | -84.09985 | 35037 ft | 465 kts | 51° |
| 2026-05-05 21:29 | 27.09977 | -84.03758 | 35038 ft | 464 kts | 51° |
| 2026-05-05 21:30 | 27.13280 | -83.97593 | 35040 ft | 463 kts | 51° |
| 2026-05-05 21:30 | 27.16566 | -83.91373 | 35037 ft | 463 kts | 51° |
| 2026-05-05 21:31 | 27.19845 | -83.85154 | 35032 ft | 462 kts | 51° |
| 2026-05-05 21:31 | 27.21484 | -83.82061 | 34854 ft | 460 kts | 51° |
| 2026-05-05 21:31 | 27.23157 | -83.78890 | 34546 ft | 469 kts | 51° |
| 2026-05-05 21:32 | 27.24798 | -83.75767 | 34306 ft | 472 kts | 51° |
| 2026-05-05 21:32 | 27.26472 | -83.72592 | 34067 ft | 473 kts | 51° |
| 2026-05-05 21:32 | 27.28146 | -83.69403 | 33683 ft | 473 kts | 51° |
| 2026-05-05 21:32 | 27.29821 | -83.66223 | 33070 ft | 472 kts | 52° |
| 2026-05-05 21:33 | 27.31493 | -83.63048 | 32372 ft | 472 kts | 52° |
| 2026-05-05 21:33 | 27.33163 | -83.59871 | 31680 ft | 473 kts | 52° |
| 2026-05-05 21:33 | 27.34834 | -83.56675 | 31015 ft | 473 kts | 52° |
| 2026-05-05 21:33 | 27.36496 | -83.53489 | 30394 ft | 472 kts | 52° |
| 2026-05-05 21:34 | 27.38161 | -83.50320 | 29715 ft | 469 kts | 52° |
| 2026-05-05 21:34 | 27.39813 | -83.47158 | 29010 ft | 466 kts | 53° |
| 2026-05-05 21:34 | 27.41431 | -83.44018 | 28346 ft | 462 kts | 53° |
| 2026-05-05 21:34 | 27.43040 | -83.40915 | 27729 ft | 456 kts | 53° |
| 2026-05-05 21:35 | 27.44636 | -83.37853 | 27103 ft | 452 kts | 53° |
| 2026-05-05 21:35 | 27.46218 | -83.34810 | 26469 ft | 448 kts | 53° |
| 2026-05-05 21:35 | 27.47794 | -83.31800 | 25880 ft | 444 kts | 53° |
| 2026-05-05 21:35 | 27.49364 | -83.28823 | 25309 ft | 440 kts | 53° |
| 2026-05-05 21:36 | 27.50914 | -83.25870 | 24722 ft | 437 kts | 53° |
| 2026-05-05 21:36 | 27.52422 | -83.22913 | 24150 ft | 436 kts | 56° |
| 2026-05-05 21:36 | 27.53771 | -83.19856 | 23801 ft | 434 kts | 58° |
| 2026-05-05 21:36 | 27.55092 | -83.16807 | 23538 ft | 433 kts | 58° |
| 2026-05-05 21:37 | 27.56410 | -83.13763 | 23261 ft | 431 kts | 58° |
| 2026-05-05 21:37 | 27.57719 | -83.10745 | 23006 ft | 430 kts | 58° |
| 2026-05-05 21:37 | 27.59028 | -83.07724 | 22752 ft | 428 kts | 58° |
| 2026-05-05 21:37 | 27.60336 | -83.04716 | 22581 ft | 426 kts | 58° |
| 2026-05-05 21:38 | 27.61631 | -83.01715 | 22468 ft | 425 kts | 59° |
| 2026-05-05 21:38 | 27.62922 | -82.98717 | 22390 ft | 425 kts | 59° |
| 2026-05-05 21:38 | 27.64202 | -82.95762 | 22312 ft | 424 kts | 58° |
| 2026-05-05 21:38 | 27.65514 | -82.92739 | 22210 ft | 423 kts | 59° |
| 2026-05-05 21:39 | 27.66802 | -82.89759 | 22120 ft | 422 kts | 59° |
| 2026-05-05 21:39 | 27.68066 | -82.86816 | 22048 ft | 422 kts | 59° |
| 2026-05-05 21:39 | 27.69362 | -82.83803 | 21970 ft | 421 kts | 59° |
| 2026-05-05 21:39 | 27.70629 | -82.80865 | 21901 ft | 421 kts | 59° |
| 2026-05-05 21:40 | 27.71904 | -82.77902 | 21829 ft | 420 kts | 59° |
| 2026-05-05 21:40 | 27.73176 | -82.74935 | 21748 ft | 419 kts | 59° |
| 2026-05-05 21:40 | 27.74445 | -82.71971 | 21670 ft | 419 kts | 59° |
| 2026-05-05 21:40 | 27.75715 | -82.69017 | 21568 ft | 418 kts | 59° |
| 2026-05-05 21:41 | 27.76979 | -82.66068 | 21477 ft | 417 kts | 59° |
| 2026-05-05 21:41 | 27.78234 | -82.63116 | 21415 ft | 417 kts | 59° |
| 2026-05-05 21:41 | 27.79494 | -82.60172 | 21278 ft | 415 kts | 59° |
| 2026-05-05 21:41 | 27.80344 | -82.58193 | 21147 ft | 414 kts | 59° |
| 2026-05-05 21:42 | 27.81601 | -82.55274 | 20944 ft | 413 kts | 59° |
| 2026-05-05 21:42 | 27.82847 | -82.52363 | 20729 ft | 411 kts | 59° |
| 2026-05-05 21:42 | 27.84068 | -82.49502 | 20525 ft | 409 kts | 59° |
| 2026-05-05 21:42 | 27.85303 | -82.46612 | 20305 ft | 407 kts | 59° |
| 2026-05-05 21:43 | 27.86529 | -82.43738 | 20094 ft | 406 kts | 59° |
| 2026-05-05 21:43 | 27.87750 | -82.40863 | 19850 ft | 404 kts | 60° |
| 2026-05-05 21:43 | 27.88917 | -82.37992 | 19541 ft | 399 kts | 61° |
| 2026-05-05 21:43 | 27.90053 | -82.35165 | 19181 ft | 394 kts | 61° |
| 2026-05-05 21:44 | 27.91178 | -82.32353 | 18798 ft | 390 kts | 61° |
| 2026-05-05 21:44 | 27.92297 | -82.29565 | 18412 ft | 388 kts | 61° |
| 2026-05-05 21:44 | 27.93406 | -82.26798 | 17984 ft | 385 kts | 61° |
| 2026-05-05 21:44 | 27.94514 | -82.24041 | 17512 ft | 383 kts | 61° |
| 2026-05-05 21:45 | 27.95606 | -82.21302 | 17107 ft | 381 kts | 62° |
| 2026-05-05 21:45 | 27.96686 | -82.18575 | 16721 ft | 378 kts | 62° |
| 2026-05-05 21:45 | 27.97765 | -82.15879 | 16343 ft | 376 kts | 61° |
| 2026-05-05 21:45 | 27.98840 | -82.13191 | 15966 ft | 374 kts | 62° |
| 2026-05-05 21:46 | 27.99907 | -82.10516 | 15587 ft | 372 kts | 62° |
| 2026-05-05 21:46 | 28.00966 | -82.07852 | 15209 ft | 371 kts | 62° |
| 2026-05-05 21:46 | 28.02027 | -82.05198 | 14829 ft | 369 kts | 62° |
| 2026-05-05 21:46 | 28.03088 | -82.02556 | 14449 ft | 368 kts | 62° |
| 2026-05-05 21:47 | 28.04139 | -81.99918 | 14073 ft | 367 kts | 62° |
| 2026-05-05 21:47 | 28.05183 | -81.97294 | 13713 ft | 361 kts | 62° |
| 2026-05-05 21:47 | 28.06208 | -81.94743 | 13451 ft | 349 kts | 62° |
| 2026-05-05 21:47 | 28.07191 | -81.92325 | 13256 ft | 336 kts | 62° |
| 2026-05-05 21:48 | 28.08167 | -81.89930 | 13042 ft | 325 kts | 62° |
| 2026-05-05 21:48 | 28.09118 | -81.87672 | 12653 ft | 320 kts | 59° |
| 2026-05-05 21:48 | 28.10145 | -81.85445 | 12209 ft | 317 kts | 59° |
| 2026-05-05 21:48 | 28.11177 | -81.83243 | 11754 ft | 316 kts | 59° |
| 2026-05-05 21:49 | 28.12176 | -81.81032 | 11314 ft | 315 kts | 64° |
| 2026-05-05 21:49 | 28.12690 | -81.78628 | 10841 ft | 317 kts | 88° |
| 2026-05-05 21:49 | 28.12507 | -81.76146 | 10415 ft | 316 kts | 98° |
| 2026-05-05 21:49 | 28.12172 | -81.73695 | 10011 ft | 313 kts | 99° |
| 2026-05-05 21:50 | 28.11840 | -81.71267 | 9582 ft | 311 kts | 99° |
| 2026-05-05 21:50 | 28.11521 | -81.68855 | 9212 ft | 307 kts | 98° |
| 2026-05-05 21:50 | 28.11218 | -81.66473 | 8847 ft | 303 kts | 98° |
| 2026-05-05 21:50 | 28.10926 | -81.64123 | 8495 ft | 299 kts | 98° |
| 2026-05-05 21:51 | 28.10639 | -81.61811 | 8213 ft | 295 kts | 98° |
| 2026-05-05 21:51 | 28.10355 | -81.59511 | 7956 ft | 293 kts | 98° |
| 2026-05-05 21:51 | 28.10075 | -81.57232 | 7707 ft | 291 kts | 98° |
| 2026-05-05 21:51 | 28.09799 | -81.54998 | 7458 ft | 283 kts | 98° |
| 2026-05-05 21:52 | 28.09271 | -81.50756 | 7141 ft | 261 kts | 99° |
| 2026-05-05 21:52 | 28.09024 | -81.48767 | 6989 ft | 248 kts | 99° |
| 2026-05-05 21:52 | 28.08790 | -81.46872 | 6961 ft | 241 kts | 99° |
| 2026-05-05 21:53 | 28.08559 | -81.44995 | 6972 ft | 240 kts | 99° |
| 2026-05-05 21:53 | 28.08327 | -81.43119 | 6985 ft | 241 kts | 99° |
| 2026-05-05 21:53 | 28.08124 | -81.41236 | 6918 ft | 240 kts | 90° |
| 2026-05-05 21:53 | 28.08532 | -81.39429 | 6512 ft | 239 kts | 59° |
| 2026-05-05 21:54 | 28.09664 | -81.38083 | 6094 ft | 237 kts | 30° |
| 2026-05-05 21:54 | 28.11190 | -81.37526 | 5806 ft | 235 kts | 1° |
| 2026-05-05 21:54 | 28.12802 | -81.37697 | 5511 ft | 233 kts | 352° |
| 2026-05-05 21:54 | 28.14392 | -81.37544 | 5136 ft | 230 kts | 22° |
| 2026-05-05 21:55 | 28.15769 | -81.36650 | 4805 ft | 227 kts | 36° |
| 2026-05-05 21:55 | 28.17042 | -81.35596 | 4477 ft | 226 kts | 37° |
| 2026-05-05 21:55 | 28.18304 | -81.34553 | 4178 ft | 224 kts | 37° |
| 2026-05-05 21:55 | 28.19570 | -81.33524 | 4001 ft | 224 kts | 36° |
| 2026-05-05 21:56 | 28.20835 | -81.32623 | 3972 ft | 202 kts | 24° |
| 2026-05-05 21:56 | 28.22170 | -81.32404 | 3815 ft | 194 kts | 0° |
| 2026-05-05 21:56 | 28.23518 | -81.32466 | 3482 ft | 193 kts | 360° |
| 2026-05-05 21:56 | 28.24853 | -81.32503 | 3142 ft | 192 kts | 1° |
| 2026-05-05 21:57 | 28.26189 | -81.32521 | 2995 ft | 192 kts | 1° |
| 2026-05-05 21:57 | 28.27524 | -81.32535 | 2899 ft | 192 kts | 1° |
| 2026-05-05 21:57 | 28.28856 | -81.32551 | 2646 ft | 191 kts | 0° |
| 2026-05-05 21:57 | 28.30182 | -81.32564 | 2365 ft | 190 kts | 1° |
| 2026-05-05 21:58 | 28.31509 | -81.32574 | 2086 ft | 189 kts | 1° |
| 2026-05-05 21:58 | 28.32784 | -81.32591 | 1855 ft | 177 kts | 1° |
| 2026-05-05 21:58 | 28.33944 | -81.32605 | 1613 ft | 158 kts | 1° |
| 2026-05-05 21:58 | 28.34970 | -81.32625 | 1361 ft | 141 kts | 3° |
| 2026-05-05 21:59 | 28.35941 | -81.32623 | 1193 ft | 141 kts | 2° |
| 2026-05-05 21:59 | 28.36918 | -81.32628 | 956 ft | 140 kts | 2° |
| 2026-05-05 21:59 | 28.37896 | -81.32634 | 795 ft | 141 kts | 3° |
| 2026-05-05 21:59 | 28.38877 | -81.32644 | 627 ft | 142 kts | 3° |
| 2026-05-05 22:00 | 28.39858 | -81.32658 | 463 ft | 140 kts | 5° |
| 2026-05-05 22:00 | 28.40827 | -81.32658 | 302 ft | 139 kts | 5° |
| 2026-05-05 22:00 | 28.41792 | -81.32669 | 115 ft | 138 kts | 5° |
| 2026-05-05 22:00 | 28.42516 | -81.32661 | 105 ft | 109 kts | 354° |
| 2026-05-05 22:01 | 28.43137 | -81.32677 | 106 ft | 73 kts | 0° |
| 2026-05-05 22:01 | 28.43486 | -81.32674 | 105 ft | 37 kts | 358° |
| 2026-05-05 22:01 | 28.43676 | -81.32647 | 105 ft | 18 kts | 33° |
| 2026-05-05 22:01 | 28.43738 | -81.32558 | 104 ft | 14 kts | 59° |
| 2026-05-05 22:02 | 28.43792 | -81.32455 | 104 ft | 16 kts | 59° |
| 2026-05-05 22:02 | 28.43852 | -81.32342 | 105 ft | 18 kts | 59° |
| 2026-05-05 22:02 | 28.43921 | -81.32213 | 105 ft | 20 kts | 59° |
| 2026-05-05 22:02 | 28.43984 | -81.32087 | 105 ft | 16 kts | 74° |
| 2026-05-05 22:03 | 28.43965 | -81.31959 | 104 ft | 18 kts | 118° |
| 2026-05-05 22:03 | 28.43900 | -81.31851 | 104 ft | 17 kts | 161° |
| 2026-05-05 22:03 | 28.43779 | -81.31847 | 104 ft | 18 kts | 179° |
| 2026-05-05 22:03 | 28.43646 | -81.31846 | 104 ft | 20 kts | 179° |
| 2026-05-05 22:04 | 28.43503 | -81.31845 | 104 ft | 21 kts | 180° |
| 2026-05-05 22:04 | 28.43349 | -81.31844 | 103 ft | 23 kts | 180° |
| 2026-05-05 22:04 | 28.43184 | -81.31842 | 103 ft | 24 kts | 179° |
| 2026-05-05 22:04 | 28.43009 | -81.31840 | 103 ft | 26 kts | 179° |
| 2026-05-05 22:05 | 28.42859 | -81.31838 | 103 ft | 19 kts | 179° |
| 2026-05-05 22:05 | 28.42718 | -81.31835 | 106 ft | 21 kts | 178° |
| 2026-05-05 22:05 | 28.42563 | -81.31831 | 107 ft | 23 kts | 180° |
| 2026-05-05 22:05 | 28.42419 | -81.31833 | 106 ft | 14 kts | 180° |
| 2026-05-05 22:06 | 28.42346 | -81.31781 | 105 ft | 15 kts | 92° |
| 2026-05-05 22:06 | 28.42347 | -81.31656 | 104 ft | 17 kts | 89° |
| 2026-05-05 22:06 | 28.42348 | -81.31519 | 102 ft | 18 kts | 89° |
| 2026-05-05 22:06 | 28.42350 | -81.31372 | 100 ft | 19 kts | 89° |
| 2026-05-05 22:07 | 28.42345 | -81.31214 | 100 ft | 21 kts | 97° |
| 2026-05-05 22:07 | 28.42319 | -81.31047 | 100 ft | 22 kts | 96° |
| 2026-05-05 22:07 | 28.42323 | -81.30865 | 100 ft | 24 kts | 85° |
| 2026-05-05 22:07 | 28.42336 | -81.30671 | 102 ft | 26 kts | 85° |
| 2026-05-05 22:08 | 28.42351 | -81.30465 | 100 ft | 27 kts | 86° |
| 2026-05-05 22:08 | 28.42358 | -81.30271 | 103 ft | 18 kts | 88° |
| 2026-05-05 22:08 | 28.42366 | -81.30160 | 101 ft | 11 kts | 60° |
| 2026-05-05 22:08 | 28.42414 | -81.30132 | 100 ft | 7 kts | 31° |
| 2026-05-05 22:09 | 28.42431 | -81.30071 | 102 ft | 10 kts | 94° |
| 2026-05-05 22:09 | 28.42461 | -81.30015 | 101 ft | 7 kts | 5° |
| 2026-05-05 22:09 | 28.42506 | -81.30016 | 101 ft | 3 kts | 359° |
| 2026-05-05 22:09 | 28.42518 | -81.30016 | 101 ft | 0 kts | 358° |
| 2026-05-05 22:10 | 28.42519 | -81.30016 | 100 ft | 0 kts | 358° |